Time;durP1;ratioP1;P1;durP2;ratioP2;P2;SDS_P1;SDS_P2;PMS_P1;PMS_P2;Temp;Humidity;BMP_temperature;BMP_pressure;BME280_temperature;BME280_humidity;BME280_pressure;Samples;Min_cycle;Max_cycle;Signal;HPM_P1;HPM_P2
2022/10/04 00:01:10;;;;;;;6.97;2.93;;;;;;;19.65;63.32;101020.28;5070002;28;20291;-64
2022/10/04 00:03:41;;;;;;;6.23;2.77;;;;;;;19.65;63.35;101017.41;5081318;28;20452;-64
2022/10/04 00:06:13;;;;;;;7.77;2.40;;;;;;;19.62;63.63;101012.41;5092763;28;20528;-64
2022/10/04 00:08:42;;;;;;;7.80;3.17;;;;;;;19.65;63.13;101022.31;5058480;28;20818;-64
2022/10/04 00:11:37;;;;;;;3.90;2.60;;;;;;;19.66;63.29;101024.00;5074801;28;20427;-64
2022/10/04 00:14:08;;;;;;;6.60;2.60;;;;;;;19.63;63.33;101019.00;5075322;28;20950;-64
2022/10/04 00:16:38;;;;;;;6.30;2.80;;;;;;;19.63;63.28;101016.97;5081938;28;20516;-64
2022/10/04 00:19:18;;;;;;;6.57;2.97;;;;;;;19.66;63.34;101004.75;5054686;28;20466;-64
2022/10/04 00:21:51;;;;;;;6.13;2.90;;;;;;;19.63;63.42;101001.81;5073353;28;20475;-64
2022/10/04 00:24:26;;;;;;;8.20;3.03;;;;;;;19.65;63.25;101005.97;5073342;28;20501;-64
2022/10/04 00:26:52;;;;;;;6.87;2.60;;;;;;;19.64;63.09;101012.06;5088316;28;20453;-65
2022/10/04 00:29:37;;;;;;;8.03;2.73;;;;;;;19.64;63.19;101007.16;5072583;28;20481;-64
2022/10/04 00:32:08;;;;;;;10.40;3.40;;;;;;;19.65;63.13;100997.38;5055444;28;20179;-64
2022/10/04 00:34:34;;;;;;;8.73;2.60;;;;;;;19.64;62.92;101001.44;5073321;28;20940;-64
2022/10/04 00:37:00;;;;;;;6.30;3.30;;;;;;;19.62;63.26;100991.56;5073213;28;20500;-64
2022/10/04 00:39:32;;;;;;;3.40;2.10;;;;;;;19.63;63.14;100993.22;5042232;28;20199;-64
2022/10/04 00:42:22;;;;;;;5.70;2.27;;;;;;;19.64;63.18;100997.72;5046365;28;20187;-64
2022/10/04 00:45:32;;;;;;;5.33;2.50;;;;;;;19.64;63.20;100986.28;5055466;28;20519;-64
2022/10/04 00:48:02;;;;;;;4.87;2.53;;;;;;;19.64;63.64;100989.97;5071330;28;20480;-64
2022/10/04 00:50:36;;;;;;;9.97;2.97;;;;;;;19.63;63.13;100996.06;5086956;28;20539;-64
2022/10/04 00:53:02;;;;;;;7.13;2.80;;;;;;;19.62;63.22;100988.69;5087283;28;20481;-64
2022/10/04 00:55:36;;;;;;;4.83;2.40;;;;;;;19.62;63.08;100989.50;5037118;28;20537;-65
2022/10/04 00:58:03;;;;;;;3.60;2.40;;;;;;;19.63;62.96;100976.88;5070210;28;20178;-64
2022/10/04 01:00:38;;;;;;;5.93;2.73;;;;;;;19.62;63.13;100988.69;5072978;28;20412;-72
2022/10/04 01:03:09;;;;;;;5.47;2.47;;;;;;;19.63;63.14;100991.19;5047296;28;20436;-71
2022/10/04 01:05:43;;;;;;;6.20;2.70;;;;;;;19.63;63.10;100979.72;5047187;28;21182;-67
2022/10/04 01:08:13;;;;;;;4.87;2.80;;;;;;;19.62;63.31;100988.69;5041571;28;20496;-72
2022/10/04 01:10:55;;;;;;;5.73;2.40;;;;;;;19.62;63.02;100995.22;5038926;28;20417;-72
2022/10/04 01:14:00;;;;;;;3.77;2.17;;;;;;;19.63;63.22;100979.72;5038381;28;20827;-72
2022/10/04 01:16:27;;;;;;;4.67;2.30;;;;;;;19.65;63.29;100982.19;4960391;28;20437;-70
2022/10/04 01:18:53;;;;;;;4.50;2.30;;;;;;;19.60;63.13;100986.19;5038823;28;20433;-72
2022/10/04 01:21:18;;;;;;;7.20;3.20;;;;;;;19.61;63.15;100981.31;5072844;28;20422;-72
2022/10/04 01:24:14;;;;;;;10.30;3.13;;;;;;;19.64;62.98;100992.84;5072546;28;20174;-71
2022/10/04 01:26:44;;;;;;;5.80;2.77;;;;;;;19.60;63.27;100976.75;5057706;28;20179;-72
2022/10/04 01:29:38;;;;;;;5.53;2.40;;;;;;;19.59;63.21;100986.56;5054692;28;20429;-71
2022/10/04 01:32:04;;;;;;;4.93;2.40;;;;;;;19.62;63.08;100977.22;5058588;28;20807;-72
2022/10/04 01:34:29;;;;;;;7.50;2.60;;;;;;;19.63;63.08;100976.88;5071525;28;20410;-72
2022/10/04 01:36:58;;;;;;;4.90;2.40;;;;;;;19.62;62.87;100974.38;5071631;28;20175;-71
2022/10/04 01:39:24;;;;;;;6.10;3.07;;;;;;;19.62;63.17;100971.50;5053728;28;20171;-72
2022/10/04 01:41:53;;;;;;;4.93;2.77;;;;;;;19.60;63.12;100965.28;5037279;28;20409;-72
2022/10/04 01:44:29;;;;;;;8.60;2.40;;;;;;;19.60;62.99;100960.41;5071361;28;20722;-71
2022/10/04 01:46:55;;;;;;;7.20;3.10;;;;;;;19.59;63.08;100955.88;5071680;28;20919;-71
2022/10/04 01:49:24;;;;;;;4.43;2.73;;;;;;;19.59;63.01;100955.03;5054177;28;20498;-72
2022/10/04 01:52:27;;;;;;;7.20;2.60;;;;;;;19.59;63.25;100961.63;5042788;28;20471;-72
2022/10/04 01:55:05;;;;;;;4.30;2.40;;;;;;;19.59;63.17;100958.75;4954860;28;20457;-72
2022/10/04 01:57:51;;;;;;;4.60;2.50;;;;;;;19.59;63.01;100955.88;5007972;28;20871;-71
2022/10/04 02:00:17;;;;;;;4.53;2.17;;;;;;;19.58;63.08;100948.50;5030444;28;20858;-72
2022/10/04 02:02:48;;;;;;;4.00;2.30;;;;;;;19.58;63.01;100953.38;5014143;28;20427;-71
2022/10/04 02:05:16;;;;;;;5.07;2.43;;;;;;;19.58;62.87;100951.38;5030637;28;20220;-71
2022/10/04 02:07:41;;;;;;;4.40;2.70;;;;;;;19.57;63.41;100949.69;5030826;28;20461;-72
2022/10/04 02:10:16;;;;;;;5.20;2.63;;;;;;;19.58;63.28;100951.38;5030668;28;20446;-72
2022/10/04 02:12:44;;;;;;;4.30;2.50;;;;;;;19.58;63.24;100953.38;5030771;28;20411;-72
2022/10/04 02:15:10;;;;;;;5.50;2.53;;;;;;;19.55;63.04;100949.25;5030372;28;20812;-72
2022/10/04 02:17:38;;;;;;;3.80;2.33;;;;;;;19.57;63.03;100943.97;5031999;28;20423;-72
2022/10/04 02:20:08;;;;;;;5.13;2.73;;;;;;;19.57;63.00;100951.75;5046990;28;20425;-72
2022/10/04 02:22:35;;;;;;;4.50;2.53;;;;;;;19.57;62.98;100955.41;5030202;28;20417;-71
2022/10/04 02:25:00;;;;;;;5.10;2.60;;;;;;;19.56;63.04;100944.34;5030762;28;20406;-71
2022/10/04 02:27:28;;;;;;;3.10;2.03;;;;;;;19.57;62.98;100949.69;5030278;28;20969;-71
2022/10/04 02:30:02;;;;;;;4.07;2.60;;;;;;;19.57;63.08;100946.81;5030598;28;20201;-71
2022/10/04 02:35:14;;;;;;;4.10;2.10;;;;;;;19.56;63.50;100950.06;5044044;28;20414;-71
2022/10/04 02:37:40;;;;;;;4.30;2.70;;;;;;;19.55;63.35;100949.25;5046348;28;21024;-71
2022/10/04 02:40:11;;;;;;;4.83;2.57;;;;;;;19.56;63.05;100942.31;5046295;28;20415;-72
2022/10/04 02:42:59;;;;;;;3.77;1.77;;;;;;;19.56;63.21;100932.91;5029356;28;20598;-71
2022/10/04 02:45:37;;;;;;;4.20;2.00;;;;;;;19.55;63.04;100925.47;5014303;28;20490;-72
2022/10/04 02:48:44;;;;;;;4.27;2.53;;;;;;;19.56;62.90;100921.44;5026506;28;20462;-72
2022/10/04 02:51:35;;;;;;;4.80;2.40;;;;;;;19.56;62.72;100921.44;5036219;28;20939;-71
2022/10/04 02:54:19;;;;;;;5.70;2.40;;;;;;;19.56;62.60;100930.03;5066842;28;20457;-71
2022/10/04 02:56:44;;;;;;;4.83;2.70;;;;;;;19.56;62.80;100930.84;5066995;28;20863;-71
2022/10/04 02:59:12;;;;;;;4.30;2.13;;;;;;;19.54;63.12;100927.53;5034897;28;20476;-72
2022/10/04 03:01:52;;;;;;;5.40;2.40;;;;;;;19.55;62.84;100932.06;5035002;28;20167;-71
2022/10/04 03:04:19;;;;;;;5.20;2.07;;;;;;;19.54;63.27;100927.53;5083430;28;20526;-71
2022/10/04 03:06:45;;;;;;;4.33;2.20;;;;;;;19.55;63.16;100932.06;5090382;28;20852;-71
2022/10/04 03:09:11;;;;;;;4.77;2.53;;;;;;;19.55;63.13;100929.19;5072683;28;20401;-71
2022/10/04 03:11:37;;;;;;;4.43;2.23;;;;;;;19.52;63.05;100938.50;5072835;28;20154;-72
2022/10/04 03:14:05;;;;;;;3.90;2.27;;;;;;;19.52;62.95;100938.50;5091151;28;20239;-72
2022/10/04 03:16:36;;;;;;;4.90;2.70;;;;;;;19.52;62.97;100932.78;5056646;28;20950;-71
2022/10/04 03:19:01;;;;;;;5.10;2.73;;;;;;;19.52;63.07;100932.78;5073003;28;20776;-71
2022/10/04 03:21:27;;;;;;;2.93;1.77;;;;;;;19.53;63.02;100939.34;5042576;28;20449;-72
2022/10/04 03:23:52;;;;;;;3.77;2.37;;;;;;;19.52;62.89;100932.78;5071085;28;20186;-72
2022/10/04 03:26:46;;;;;;;3.80;2.40;;;;;;;19.55;63.01;100925.47;5070822;28;20175;-72
2022/10/04 03:29:13;;;;;;;3.73;2.00;;;;;;;19.54;63.26;100924.66;5051746;28;20272;-71
2022/10/04 03:31:40;;;;;;;6.13;2.23;;;;;;;19.55;62.93;100929.19;5052693;28;21120;-72
2022/10/04 03:34:11;;;;;;;3.33;2.17;;;;;;;19.51;62.83;100925.41;5036361;28;20771;-72
2022/10/04 03:36:36;;;;;;;3.50;2.20;;;;;;;19.51;62.98;100925.41;5023609;28;20448;-70
2022/10/04 03:39:02;;;;;;;3.07;1.93;;;;;;;19.52;63.10;100918.47;5039824;28;20821;-71
2022/10/04 03:41:27;;;;;;;3.07;1.93;;;;;;;19.51;63.00;100916.81;5039932;28;20605;-71
2022/10/04 03:43:53;;;;;;;4.27;2.40;;;;;;;19.55;62.98;100919.75;5074736;28;20170;-71
2022/10/04 03:46:18;;;;;;;3.07;2.10;;;;;;;19.54;62.94;100913.22;5056459;28;20220;-71
2022/10/04 03:48:49;;;;;;;4.07;2.50;;;;;;;19.57;62.94;100923.09;5039712;28;20563;-71
2022/10/04 03:51:24;;;;;;;5.80;2.63;;;;;;;19.54;62.77;100926.69;5056209;28;20229;-72
2022/10/04 03:54:00;;;;;;;3.23;2.20;;;;;;;19.51;63.03;100921.72;5040209;28;20401;-72
2022/10/04 03:56:26;;;;;;;4.80;2.47;;;;;;;19.53;62.93;100911.56;5074674;28;20385;-71
2022/10/04 03:58:52;;;;;;;6.73;1.93;;;;;;;19.53;62.88;100913.56;5056555;28;20478;-70
2022/10/04 04:01:37;;;;;;;2.70;1.73;;;;;;;19.53;62.91;100916.44;5040017;28;20407;-71
2022/10/04 04:04:15;;;;;;;2.93;1.57;;;;;;;19.54;62.84;100913.22;5056578;28;20218;-71
2022/10/04 04:06:52;;;;;;;3.33;2.20;;;;;;;19.56;62.79;100913.66;5054693;28;20926;-71
2022/10/04 04:09:39;;;;;;;3.67;1.90;;;;;;;19.55;62.66;100912.00;5055035;28;20544;-72
2022/10/04 04:12:08;;;;;;;3.63;2.43;;;;;;;19.55;62.80;100914.03;5055489;28;20421;-71
2022/10/04 04:14:34;;;;;;;4.50;2.17;;;;;;;19.54;63.03;100912.38;5055236;28;20765;-71
2022/10/04 04:17:24;;;;;;;3.40;1.97;;;;;;;19.52;62.98;100915.59;5055177;28;20543;-72
2022/10/04 04:19:50;;;;;;;3.70;1.90;;;;;;;19.54;62.78;100920.97;5073829;28;20160;-71
2022/10/04 04:22:15;;;;;;;4.20;2.17;;;;;;;19.54;62.79;100918.94;5073749;28;20428;-71
2022/10/04 04:24:41;;;;;;;4.90;2.30;;;;;;;19.56;62.79;100915.72;5055933;28;20163;-71
2022/10/04 04:27:09;;;;;;;3.50;2.10;;;;;;;19.56;62.63;100904.25;5055731;28;20183;-71
2022/10/04 04:29:51;;;;;;;2.87;1.80;;;;;;;19.56;62.71;100905.06;5039846;28;20246;-72
2022/10/04 04:32:34;;;;;;;3.00;1.83;;;;;;;19.55;62.72;100920.59;5055857;28;20433;-72
2022/10/04 04:35:06;;;;;;;3.40;2.03;;;;;;;19.57;62.71;100928.81;5057969;28;20574;-72
2022/10/04 04:37:33;;;;;;;3.53;2.20;;;;;;;19.56;62.97;100925.13;5055949;28;20418;-72
2022/10/04 04:40:09;;;;;;;3.93;2.07;;;;;;;19.52;62.83;100918.47;5073682;28;20475;-71
2022/10/04 04:42:35;;;;;;;5.60;1.80;;;;;;;19.53;62.77;100917.28;5087624;28;20886;-71
2022/10/04 04:45:05;;;;;;;3.57;1.90;;;;;;;19.54;63.00;100916.06;5072543;28;20413;-71
2022/10/04 04:47:41;;;;;;;3.37;1.90;;;;;;;19.56;62.63;100910.78;5037740;28;20199;-71
2022/10/04 04:50:16;;;;;;;3.50;2.07;;;;;;;19.54;62.74;100921.81;5051955;28;20420;-72
2022/10/04 04:52:43;;;;;;;3.43;1.90;;;;;;;19.55;62.93;100919.75;5073339;28;20962;-71
2022/10/04 04:55:25;;;;;;;3.70;1.87;;;;;;;19.52;62.88;100921.31;5055341;28;20421;-72
2022/10/04 04:57:51;;;;;;;3.20;2.10;;;;;;;19.54;62.76;100924.66;5072794;28;20421;-72
2022/10/04 05:00:18;;;;;;;4.47;2.30;;;;;;;19.55;63.28;100928.34;5073499;28;20405;-71
2022/10/04 05:02:53;;;;;;;4.77;2.50;;;;;;;19.56;62.61;100922.25;5055703;28;20417;-71
2022/10/04 05:05:20;;;;;;;2.97;1.90;;;;;;;19.57;62.86;100923.91;5058906;28;20735;-72
2022/10/04 05:07:46;;;;;;;3.50;2.17;;;;;;;19.56;62.67;100922.25;5093228;28;20448;-71
2022/10/04 05:10:31;;;;;;;3.27;2.00;;;;;;;19.55;62.79;100932.06;5075313;28;20424;-72
2022/10/04 05:12:58;;;;;;;3.73;2.47;;;;;;;19.56;62.70;100927.97;5076101;28;20494;-71
2022/10/04 05:15:24;;;;;;;2.90;2.10;;;;;;;19.56;62.91;100939.44;5074568;28;20435;-72
2022/10/04 05:17:49;;;;;;;3.40;2.00;;;;;;;19.57;62.63;100932.50;5092103;28;20405;-72
2022/10/04 05:20:15;;;;;;;3.40;2.10;;;;;;;19.54;62.74;100941.84;5074275;28;20182;-72
2022/10/04 05:22:42;;;;;;;3.97;2.40;;;;;;;19.56;62.77;100945.16;5074459;28;20173;-72
2022/10/04 05:25:11;;;;;;;3.37;1.73;;;;;;;19.57;62.57;100949.69;5058243;28;20926;-72
2022/10/04 05:27:38;;;;;;;2.97;2.33;;;;;;;19.58;62.62;100947.66;5053103;28;20461;-71
2022/10/04 05:30:07;;;;;;;2.87;2.10;;;;;;;19.57;62.78;100949.69;5072384;28;20421;-72
2022/10/04 05:32:36;;;;;;;3.00;1.97;;;;;;;19.56;62.77;100955.81;5037840;28;20441;-72
2022/10/04 05:35:16;;;;;;;2.53;1.50;;;;;;;19.57;62.91;100964.00;5054543;28;20780;-72
2022/10/04 05:38:09;;;;;;;2.57;1.90;;;;;;;19.55;62.71;100960.69;5038867;28;20489;-72
2022/10/04 05:40:54;;;;;;;3.80;2.30;;;;;;;19.57;62.75;100960.31;5072418;28;20766;-71
2022/10/04 05:43:26;;;;;;;3.43;2.17;;;;;;;19.56;62.62;100962.34;5054497;28;20398;-71
2022/10/04 05:46:24;;;;;;;3.30;1.50;;;;;;;19.55;62.83;100960.69;5072594;28;20512;-72
2022/10/04 05:48:59;;;;;;;3.03;1.93;;;;;;;19.58;62.69;100967.72;5025138;28;20534;-71
2022/10/04 05:51:26;;;;;;;3.23;2.13;;;;;;;19.59;62.53;100975.09;5035359;28;20544;-72
2022/10/04 05:53:51;;;;;;;3.20;1.90;;;;;;;19.60;62.53;100982.47;5071433;28;20408;-72
2022/10/04 05:56:24;;;;;;;3.30;1.97;;;;;;;19.59;62.53;100978.81;5072080;28;20410;-71
2022/10/04 05:59:10;;;;;;;2.63;1.63;;;;;;;19.59;62.44;100983.69;5071888;28;20182;-71
2022/10/04 06:01:56;;;;;;;3.07;2.07;;;;;;;19.58;62.67;100974.28;5071854;28;20401;-72
2022/10/04 06:04:27;;;;;;;2.43;1.60;;;;;;;19.57;62.77;100978.31;5070120;28;20921;-71
2022/10/04 06:07:16;;;;;;;2.60;1.87;;;;;;;19.57;62.64;100971.78;5076190;28;20450;-69
2022/10/04 06:09:54;;;;;;;3.40;1.80;;;;;;;19.59;62.65;100978.81;5054079;28;20448;-72
2022/10/04 06:12:45;;;;;;;3.33;1.90;;;;;;;19.58;62.47;100973.44;5051650;28;20402;-71
2022/10/04 06:15:39;;;;;;;3.50;1.90;;;;;;;19.58;62.63;100977.16;5050410;28;20414;-71
2022/10/04 06:18:26;;;;;;;2.83;1.80;;;;;;;19.60;62.56;100977.59;5061201;28;20439;-71
2022/10/04 06:21:29;;;;;;;4.23;2.30;;;;;;;19.59;62.56;100970.22;5071747;28;20404;-71
2022/10/04 06:24:03;;;;;;;4.73;1.90;;;;;;;19.59;62.92;100967.34;5056503;28;20414;-72
2022/10/04 06:26:34;;;;;;;3.93;2.20;;;;;;;19.58;62.51;100971.41;5051472;28;20941;-71
2022/10/04 06:29:02;;;;;;;2.73;2.00;;;;;;;19.61;62.46;100975.56;5066603;28;20789;-71
2022/10/04 06:31:37;;;;;;;4.73;1.90;;;;;;;19.61;62.54;100967.78;5049855;28;20434;-71
2022/10/04 06:34:27;;;;;;;3.30;2.33;;;;;;;19.62;62.31;100972.31;5040676;28;20425;-72
2022/10/04 06:37:08;;;;;;;3.20;1.90;;;;;;;19.62;62.66;100980.09;5049688;28;20791;-71
2022/10/04 06:40:05;;;;;;;3.60;2.00;;;;;;;19.62;62.48;100977.22;5065290;28;20871;-71
2022/10/04 06:42:36;;;;;;;2.10;1.60;;;;;;;19.58;62.52;100982.88;5070606;28;20405;-71
2022/10/04 06:45:33;;;;;;;2.67;1.70;;;;;;;19.60;62.63;100973.88;5063693;28;20497;-71
2022/10/04 06:48:17;;;;;;;3.27;1.87;;;;;;;19.62;62.67;100980.91;5069943;28;20539;-71
2022/10/04 06:50:58;;;;;;;2.43;1.77;;;;;;;19.61;62.51;100987.84;5069920;28;20463;-71
2022/10/04 06:54:05;;;;;;;5.57;2.10;;;;;;;19.64;62.33;100995.72;5052861;28;20763;-71
2022/10/04 06:56:59;;;;;;;2.63;1.70;;;;;;;19.62;62.50;100983.78;5049094;28;20483;-71
2022/10/04 06:59:28;;;;;;;3.80;1.60;;;;;;;19.62;62.55;100992.38;5066455;28;20398;-71
2022/10/04 07:02:16;;;;;;;2.47;1.80;;;;;;;19.62;62.56;100988.69;5050770;28;20454;-72
2022/10/04 07:05:00;;;;;;;2.27;1.70;;;;;;;19.59;62.78;100984.53;5055200;28;20434;-72
2022/10/04 07:07:35;;;;;;;3.50;2.40;;;;;;;19.62;62.67;100989.50;5066229;28;20452;-72
2022/10/04 07:10:19;;;;;;;3.50;1.87;;;;;;;19.64;62.46;100987.13;5056021;28;20435;-71
2022/10/04 07:13:08;;;;;;;3.77;2.40;;;;;;;19.63;62.40;100991.19;5058420;28;20414;-72
2022/10/04 07:16:15;;;;;;;2.43;1.90;;;;;;;19.64;62.58;100997.72;5054381;28;20425;-72
2022/10/04 07:19:11;;;;;;;3.40;1.80;;;;;;;19.64;62.40;100998.56;5060569;28;20421;-72
2022/10/04 07:21:41;;;;;;;3.40;2.00;;;;;;;19.64;62.55;100992.84;5053399;28;20427;-71
2022/10/04 07:24:08;;;;;;;2.70;1.70;;;;;;;19.64;62.42;100992.00;5039543;28;20414;-71
2022/10/04 07:26:45;;;;;;;2.70;1.80;;;;;;;19.63;62.56;100996.91;5036440;28;20428;-71
2022/10/04 07:29:20;;;;;;;2.70;2.10;;;;;;;19.64;62.38;100994.88;5071540;28;21010;-70
2022/10/04 07:32:35;;;;;;;3.50;2.10;;;;;;;19.64;62.52;100998.56;5041438;28;20497;-71
2022/10/04 07:35:19;;;;;;;3.37;1.73;;;;;;;19.64;62.80;100992.84;5052477;28;20442;-72
2022/10/04 07:37:48;;;;;;;3.83;2.00;;;;;;;19.67;62.54;100997.00;5039574;28;20457;-72
2022/10/04 07:40:34;;;;;;;2.53;1.73;;;;;;;19.67;62.10;100991.25;5051896;28;20421;-72
2022/10/04 07:43:05;;;;;;;2.67;1.67;;;;;;;19.68;62.58;100998.66;5043739;28;20417;-72
2022/10/04 07:45:32;;;;;;;2.63;1.60;;;;;;;19.66;62.37;100996.16;5037936;28;20484;-71
2022/10/04 07:48:03;;;;;;;3.87;1.67;;;;;;;19.67;62.76;100997.00;5055338;28;20523;-71
2022/10/04 07:50:33;;;;;;;2.50;1.73;;;;;;;19.67;62.54;100986.34;5052858;28;20467;-71
2022/10/04 07:53:15;;;;;;;3.00;1.90;;;;;;;19.68;62.24;100993.75;5058718;28;20995;-71
2022/10/04 07:56:20;;;;;;;3.33;1.80;;;;;;;19.67;62.35;100999.84;5040676;28;20425;-70
2022/10/04 07:59:04;;;;;;;3.57;1.87;;;;;;;19.65;62.51;101000.22;5039658;28;20439;-72
2022/10/04 08:02:00;;;;;;;4.67;1.73;;;;;;;19.66;62.46;100995.34;5037199;28;20954;-71
2022/10/04 08:04:37;;;;;;;2.43;1.90;;;;;;;19.68;62.38;100985.19;5052835;28;20425;-71
2022/10/04 08:07:08;;;;;;;2.53;1.67;;;;;;;19.68;62.34;100985.19;5061341;28;20448;-71
2022/10/04 08:09:39;;;;;;;2.73;1.50;;;;;;;19.68;62.47;100982.31;5039343;28;20422;-72
2022/10/04 08:12:37;;;;;;;4.10;1.77;;;;;;;19.68;62.27;100982.31;5064916;28;20422;-71
2022/10/04 08:15:12;;;;;;;3.00;2.07;;;;;;;19.71;62.25;100984.41;5043038;28;20418;-70
2022/10/04 08:18:22;;;;;;;3.03;1.90;;;;;;;19.70;62.40;100979.88;5051162;28;20495;-70
2022/10/04 08:20:52;;;;;;;5.10;1.80;;;;;;;19.69;61.89;101001.16;5008735;28;20920;-71
2022/10/04 08:23:32;;;;;;;2.40;1.60;;;;;;;19.67;62.76;100989.22;5038042;28;20432;-71
2022/10/04 08:26:13;;;;;;;3.10;1.80;;;;;;;19.68;62.24;100988.03;5062590;28;20409;-71
2022/10/04 08:32:22;;;;;;;2.53;1.50;;;;;;;19.70;62.40;101011.41;5055801;28;20480;-71
2022/10/04 08:35:15;;;;;;;3.30;1.90;;;;;;;19.72;62.23;101005.31;5038058;28;20461;-72
2022/10/04 08:38:01;;;;;;;2.30;1.50;;;;;;;19.69;62.43;101003.16;5060785;28;20896;-71
2022/10/04 08:40:37;;;;;;;2.50;1.80;;;;;;;19.72;62.28;101008.97;5065577;28;20428;-69
2022/10/04 08:43:24;;;;;;;3.80;1.73;;;;;;;19.71;62.29;101010.19;5067215;28;20500;-71
2022/10/04 08:46:10;;;;;;;2.50;1.70;;;;;;;19.72;62.57;101006.13;5057458;28;20445;-71
2022/10/04 08:48:54;;;;;;;2.13;1.50;;;;;;;19.69;62.43;101006.88;5059433;28;20468;-72
2022/10/04 08:51:51;;;;;;;2.60;1.80;;;;;;;19.72;62.39;101011.84;5064009;28;20989;-72
2022/10/04 08:54:16;;;;;;;4.20;1.90;;;;;;;19.72;62.44;101006.13;5069369;28;20424;-71
2022/10/04 08:57:16;;;;;;;2.43;1.60;;;;;;;19.70;62.49;101005.66;5069374;28;20417;-72
2022/10/04 09:00:32;;;;;;;2.23;1.30;;;;;;;19.73;62.28;101001.22;5062004;28;20224;-71
2022/10/04 09:03:35;;;;;;;2.37;1.60;;;;;;;19.71;62.46;100998.72;5020064;28;20469;-71
2022/10/04 09:06:23;;;;;;;3.50;1.70;;;;;;;19.69;62.37;101000.31;5059250;28;20402;-71
2022/10/04 09:09:03;;;;;;;2.67;1.57;;;;;;;19.70;62.42;101007.69;5057787;28;20499;-71
2022/10/04 09:11:46;;;;;;;3.13;2.10;;;;;;;19.69;62.53;100995.41;5055006;28;20414;-71
2022/10/04 09:14:26;;;;;;;2.10;1.60;;;;;;;19.73;62.64;100999.22;5038695;28;20429;-71
2022/10/04 09:17:20;;;;;;;4.80;2.03;;;;;;;19.71;62.39;100998.72;5055227;28;20421;-72
2022/10/04 09:20:03;;;;;;;3.03;1.70;;;;;;;19.71;62.59;100998.72;5061278;28;20453;-72
2022/10/04 09:22:36;;;;;;;1.93;1.40;;;;;;;19.70;62.49;100993.38;5062834;28;20423;-72
2022/10/04 09:25:27;;;;;;;3.50;1.80;;;;;;;19.68;62.58;101005.22;5040344;28;20421;-71
2022/10/04 09:28:23;;;;;;;2.43;1.70;;;;;;;19.74;62.46;101000.88;5038328;28;21447;-72
2022/10/04 09:31:12;;;;;;;3.37;1.83;;;;;;;19.71;62.56;100998.72;5049926;28;20488;-71
2022/10/04 09:34:16;;;;;;;2.10;1.50;;;;;;;19.73;62.29;100996.34;5052646;28;20429;-71
2022/10/04 09:37:23;;;;;;;2.40;1.73;;;;;;;19.75;62.19;100999.66;5054801;28;20406;-71
2022/10/04 09:40:40;;;;;;;3.23;1.90;;;;;;;19.73;62.31;100996.34;5037760;28;20446;-71
2022/10/04 09:43:44;;;;;;;2.67;1.83;;;;;;;19.73;62.48;101006.97;5054639;28;20439;-72
2022/10/04 09:46:32;;;;;;;2.20;1.70;;;;;;;19.75;62.30;100993.09;5050212;28;20425;-71
2022/10/04 09:49:04;;;;;;;3.00;1.97;;;;;;;19.75;62.20;101005.38;5044705;28;21144;-71
2022/10/04 09:51:44;;;;;;;3.83;2.10;;;;;;;19.71;62.29;100993.00;5037607;28;20469;-70
2022/10/04 09:54:14;;;;;;;3.20;1.60;;;;;;;19.74;62.11;100989.41;5057586;28;20406;-72
2022/10/04 09:57:00;;;;;;;2.07;1.57;;;;;;;19.74;63.11;100986.53;5054633;28;20442;-72
2022/10/04 09:59:49;;;;;;;2.73;1.47;;;;;;;19.76;62.70;100991.91;5057571;28;20411;-71
2022/10/04 10:02:33;;;;;;;2.50;1.43;;;;;;;19.76;62.45;100989.03;5053748;28;20429;-71
2022/10/04 10:05:20;;;;;;;3.87;1.43;;;;;;;19.73;62.60;100989.78;5053180;28;20451;-71
2022/10/04 10:08:04;;;;;;;2.67;1.70;;;;;;;19.74;62.34;100998.00;5055523;28;20815;-72
2022/10/04 10:14:47;;;;;;;2.73;1.63;;;;;;;19.75;62.29;100993.94;5040012;28;20444;-71
2022/10/04 10:17:14;;;;;;;2.10;1.50;;;;;;;19.76;62.19;100987.00;5033314;28;20556;-70
2022/10/04 10:19:48;;;;;;;2.87;1.80;;;;;;;19.78;62.28;100986.63;5056587;28;20449;-71
2022/10/04 10:22:27;;;;;;;3.20;1.67;;;;;;;19.76;62.22;100992.72;5060228;28;20420;-72
2022/10/04 10:25:14;;;;;;;2.30;1.60;;;;;;;19.76;62.59;100994.78;5054470;28;20877;-70
2022/10/04 10:27:39;;;;;;;3.33;2.00;;;;;;;19.75;62.66;100993.94;5057242;28;20453;-70
2022/10/04 10:30:11;;;;;;;3.40;2.00;;;;;;;19.76;62.33;100995.59;5037547;28;20583;-71
2022/10/04 10:33:11;;;;;;;2.20;1.60;;;;;;;19.78;62.26;100995.22;5054573;28;20276;-71
2022/10/04 10:36:04;;;;;;;2.20;1.57;;;;;;;19.80;62.11;100987.06;5051848;28;20421;-72
2022/10/04 10:38:39;;;;;;;2.83;1.70;;;;;;;19.76;62.39;100989.84;5053750;28;20418;-71
2022/10/04 10:41:26;;;;;;;3.30;2.03;;;;;;;19.76;62.37;100984.13;5052455;28;20907;-71
2022/10/04 10:44:21;;;;;;;2.70;1.57;;;;;;;19.78;62.38;100969.44;5055233;28;20410;-70
2022/10/04 10:47:04;;;;;;;3.03;1.50;;;;;;;19.79;62.38;100969.06;5054575;28;20425;-71
2022/10/04 10:49:49;;;;;;;2.67;1.60;;;;;;;19.78;62.43;100967.41;5053957;28;20595;-70
2022/10/04 10:52:37;;;;;;;2.97;1.67;;;;;;;19.79;62.48;100963.34;5037009;28;20488;-69
2022/10/04 10:55:17;;;;;;;2.67;1.63;;;;;;;19.77;62.46;100959.19;5053889;28;20817;-71
2022/10/04 10:58:10;;;;;;;3.20;1.80;;;;;;;19.78;62.50;100961.69;5070546;28;21064;-71
2022/10/04 11:01:03;;;;;;;2.10;1.53;;;;;;;19.78;62.45;100966.56;5051215;28;20485;-70
2022/10/04 11:03:42;;;;;;;2.50;1.70;;;;;;;19.75;62.68;100959.53;5052747;28;20421;-71
2022/10/04 11:06:39;;;;;;;2.50;1.67;;;;;;;19.76;62.39;100960.38;5052571;28;20450;-70
2022/10/04 11:09:16;;;;;;;2.20;1.37;;;;;;;19.76;62.65;100954.66;5069494;28;20464;-71
2022/10/04 11:12:04;;;;;;;2.33;1.57;;;;;;;19.75;62.56;100959.53;5057306;28;20418;-71
2022/10/04 11:14:45;;;;;;;3.00;1.90;;;;;;;19.75;63.10;100952.97;5035804;28;20564;-71
2022/10/04 11:17:37;;;;;;;2.43;1.37;;;;;;;19.75;62.69;100953.81;5036305;28;20560;-70
2022/10/04 11:20:28;;;;;;;2.50;1.70;;;;;;;19.77;62.50;100951.41;5054995;28;20414;-72
2022/10/04 11:23:12;;;;;;;2.30;1.47;;;;;;;19.78;62.43;100955.09;5054909;28;20429;-71
2022/10/04 11:26:35;;;;;;;2.40;1.50;;;;;;;19.80;62.38;100944.94;5052560;28;20398;-71
2022/10/04 11:29:09;;;;;;;1.90;1.30;;;;;;;19.77;62.45;100937.06;4981619;28;20492;-71
2022/10/04 11:31:55;;;;;;;2.93;1.80;;;;;;;19.75;62.69;100942.34;4982772;28;20943;-69
2022/10/04 11:34:36;;;;;;;2.80;1.80;;;;;;;19.76;62.77;100932.56;5025959;28;20428;-71
2022/10/04 11:37:08;;;;;;;2.60;1.43;;;;;;;19.78;62.62;100930.16;5050370;28;20410;-71
2022/10/04 11:40:02;;;;;;;2.90;1.60;;;;;;;19.77;62.80;100928.47;5053768;28;20766;-71
2022/10/04 11:42:40;;;;;;;2.03;1.40;;;;;;;19.78;62.55;100924.44;5028876;28;21037;-71
2022/10/04 11:45:39;;;;;;;2.40;1.43;;;;;;;19.79;62.67;100923.22;5055608;28;20808;-70
2022/10/04 11:48:26;;;;;;;2.00;1.50;;;;;;;19.81;62.58;100925.72;5037045;28;21240;-70
2022/10/04 11:51:24;;;;;;;2.60;1.50;;;;;;;19.79;62.75;100916.66;5053902;28;20416;-69
2022/10/04 11:54:15;;;;;;;1.97;1.47;;;;;;;19.80;62.48;100921.16;5003797;28;21092;-71
2022/10/04 11:57:13;;;;;;;3.30;1.67;;;;;;;19.82;62.59;100924.50;5053102;28;20393;-72
2022/10/04 12:00:09;;;;;;;2.50;1.47;;;;;;;19.82;62.35;100933.09;5056806;28;20504;-70
2022/10/04 12:03:09;;;;;;;2.30;1.50;;;;;;;19.83;62.50;100929.88;5057475;28;20567;-71
2022/10/04 12:05:55;;;;;;;2.10;1.40;;;;;;;19.80;62.66;100916.28;5058294;28;20446;-68
2022/10/04 12:08:36;;;;;;;2.60;1.53;;;;;;;19.80;62.73;100921.16;5056965;28;20454;-71
2022/10/04 12:11:20;;;;;;;2.10;1.40;;;;;;;19.82;62.62;100910.19;5055798;28;20921;-71
2022/10/04 12:14:33;;;;;;;2.27;1.40;;;;;;;19.83;62.58;100915.53;5058190;28;20462;-71
2022/10/04 12:17:15;;;;;;;2.40;1.43;;;;;;;19.85;62.21;100907.38;4993948;28;20443;-71
2022/10/04 12:19:59;;;;;;;2.40;1.60;;;;;;;19.85;62.65;100903.69;5035090;28;20465;-71
2022/10/04 12:22:43;;;;;;;2.43;1.30;;;;;;;19.82;62.37;100896.66;5057614;28;20450;-72
2022/10/04 12:25:47;;;;;;;2.50;1.70;;;;;;;19.85;62.77;100890.19;5055585;28;20898;-70
2022/10/04 12:28:16;;;;;;;1.93;1.47;;;;;;;19.87;62.30;100892.69;5025468;28;20563;-70
2022/10/04 12:31:12;;;;;;;2.30;1.50;;;;;;;19.88;62.53;100888.59;5054053;28;20430;-71